Time;durP1;ratioP1;P1;durP2;ratioP2;P2;SDS_P1;SDS_P2;PMS_P1;PMS_P2;Temp;Humidity;BMP_temperature;BMP_pressure;BME280_temperature;BME280_humidity;BME280_pressure;Samples;Min_cycle;Max_cycle;Signal;HPM_P1;HPM_P2
2022/01/17 00:01:30;;;;;;;17.60;9.70;;;4.30;99.90;;;;;;5065436;28;20205;-52
2022/01/17 00:03:58;;;;;;;16.80;12.25;;;4.40;99.90;;;;;;5078896;28;20296;-51
2022/01/17 00:06:25;;;;;;;15.65;10.10;;;4.40;99.90;;;;;;5079810;28;20209;-47
2022/01/17 00:08:53;;;;;;;17.38;11.85;;;4.50;99.90;;;;;;5079658;28;20538;-52
2022/01/17 00:11:20;;;;;;;15.90;12.95;;;4.40;99.90;;;;;;5079818;28;20197;-49
2022/01/17 00:13:49;;;;;;;12.02;10.10;;;4.50;99.90;;;;;;5078949;28;20216;-51
2022/01/17 00:16:21;;;;;;;17.83;12.65;;;4.50;99.90;;;;;;5079549;28;20209;-50
2022/01/17 00:21:18;;;;;;;17.67;11.02;;;4.60;99.90;;;;;;5079590;28;20224;-49
2022/01/17 00:23:46;;;;;;;16.85;12.18;;;4.70;99.90;;;;;;5079564;28;20225;-50
2022/01/17 00:26:14;;;;;;;13.57;10.25;;;4.70;99.90;;;;;;5079297;28;20255;-49
2022/01/17 00:28:41;;;;;;;18.05;10.93;;;4.70;99.90;;;;;;5079812;28;20434;-52
2022/01/17 00:31:08;;;;;;;14.73;10.40;;;4.80;99.90;;;;;;5079448;28;20203;-53
2022/01/17 00:33:35;;;;;;;16.13;11.68;;;4.80;99.90;;;;;;5079676;28;20253;-50
2022/01/17 00:36:03;;;;;;;17.17;9.90;;;4.80;99.90;;;;;;5079098;28;20428;-54
2022/01/17 00:38:30;;;;;;;12.70;10.25;;;4.80;99.90;;;;;;5079538;28;20197;-52
2022/01/17 00:40:58;;;;;;;15.00;10.82;;;4.80;99.90;;;;;;5082094;28;20413;-50
2022/01/17 00:43:25;;;;;;;12.88;9.25;;;4.80;99.90;;;;;;5082947;28;20239;-51
2022/01/17 00:45:53;;;;;;;19.20;11.23;;;4.70;99.90;;;;;;5083400;28;20204;-52
2022/01/17 00:48:20;;;;;;;16.10;11.05;;;4.90;99.90;;;;;;5082870;28;20248;-51
2022/01/17 00:50:48;;;;;;;14.82;10.15;;;4.90;99.90;;;;;;5083113;28;20499;-49
2022/01/17 00:53:15;;;;;;;13.18;9.65;;;4.80;99.90;;;;;;5083153;28;20400;-51
2022/01/17 00:55:42;;;;;;;11.85;9.70;;;4.80;99.90;;;;;;5085643;28;20204;-51
2022/01/17 00:58:09;;;;;;;17.45;9.30;;;4.90;99.90;;;;;;5086076;28;20206;-50
2022/01/17 01:00:37;;;;;;;14.18;8.90;;;4.90;99.90;;;;;;5083075;28;20236;-52
2022/01/17 01:03:05;;;;;;;13.93;9.32;;;4.90;99.90;;;;;;5082769;28;20245;-51
2022/01/17 01:05:32;;;;;;;14.77;10.45;;;4.90;99.90;;;;;;5082751;28;20455;-48
2022/01/17 01:08:00;;;;;;;17.45;8.75;;;4.90;99.90;;;;;;5082680;28;20236;-49
2022/01/17 01:10:28;;;;;;;13.38;9.10;;;4.90;99.90;;;;;;5082465;28;20223;-50
2022/01/17 01:12:55;;;;;;;15.85;9.75;;;4.80;99.90;;;;;;5082731;28;20215;-51
2022/01/17 01:18:36;;;;;;;14.88;10.02;;;4.90;99.90;;;;;;5082497;28;20327;-51
2022/01/17 01:29:09;;;;;;;9.95;8.10;;;4.70;99.90;;;;;;5083161;28;20604;-50
2022/01/17 01:34:38;;;;;;;17.65;9.68;;;4.70;99.90;;;;;;5079064;28;20541;-50
2022/01/17 01:37:06;;;;;;;17.45;9.27;;;4.70;99.90;;;;;;5082772;28;20244;-50
2022/01/17 01:39:34;;;;;;;14.45;8.35;;;4.60;99.90;;;;;;5082678;28;20267;-51
2022/01/17 01:42:03;;;;;;;11.07;8.00;;;4.70;99.90;;;;;;5084555;28;20212;-51
2022/01/17 01:44:31;;;;;;;16.13;10.30;;;4.70;99.90;;;;;;5085320;28;20475;-53
2022/01/17 01:46:59;;;;;;;10.68;8.50;;;4.70;99.90;;;;;;5085435;28;20203;-53
2022/01/17 01:49:26;;;;;;;12.45;8.90;;;4.70;99.90;;;;;;5084514;28;20480;-49
2022/01/17 01:51:53;;;;;;;11.82;7.63;;;4.80;99.90;;;;;;5081999;28;20244;-47
2022/01/17 01:54:20;;;;;;;11.05;8.35;;;4.70;99.90;;;;;;5082634;28;20252;-51
2022/01/17 01:56:50;;;;;;;13.60;8.23;;;4.70;99.90;;;;;;5082564;28;20221;-49
2022/01/17 01:59:22;;;;;;;19.30;10.60;;;4.70;99.90;;;;;;5082082;28;20354;-50
2022/01/17 02:01:49;;;;;;;10.02;8.18;;;4.70;99.90;;;;;;5082496;28;20201;-52
2022/01/17 02:04:17;;;;;;;15.05;7.85;;;4.70;99.90;;;;;;5062222;28;20231;-50
2022/01/17 02:06:45;;;;;;;15.60;9.55;;;4.70;99.90;;;;;;5073565;28;20515;-51
2022/01/17 02:09:12;;;;;;;8.77;7.35;;;4.60;99.90;;;;;;5082028;28;20201;-51
2022/01/17 02:11:39;;;;;;;13.25;8.75;;;4.70;99.90;;;;;;5081197;28;20196;-52
2022/01/17 02:14:06;;;;;;;12.90;9.25;;;4.70;99.90;;;;;;5081232;28;20544;-48
2022/01/17 02:16:37;;;;;;;14.02;8.77;;;4.70;99.90;;;;;;5081108;28;20202;-51
2022/01/17 02:19:05;;;;;;;9.73;8.48;;;4.70;99.90;;;;;;5081408;28;20486;-50
2022/01/17 02:21:34;;;;;;;12.75;8.52;;;4.70;99.90;;;;;;5081189;28;20532;-51
2022/01/17 02:24:02;;;;;;;10.52;9.07;;;4.60;99.90;;;;;;5081371;28;20493;-50
2022/01/17 02:26:29;;;;;;;12.05;8.50;;;4.70;99.90;;;;;;5080916;28;20225;-52
2022/01/17 02:28:58;;;;;;;10.73;7.13;;;4.70;99.90;;;;;;5081466;28;20222;-51
2022/01/17 02:31:26;;;;;;;9.05;7.65;;;4.70;99.90;;;;;;5084772;28;20205;-54
2022/01/17 02:33:53;;;;;;;14.07;9.35;;;4.70;99.90;;;;;;5076394;28;20350;-49
2022/01/17 02:36:22;;;;;;;15.35;9.80;;;4.70;99.90;;;;;;5073198;28;20197;-50
2022/01/17 02:38:50;;;;;;;11.23;7.57;;;4.80;99.90;;;;;;5084826;28;20202;-49
2022/01/17 02:41:18;;;;;;;11.68;9.15;;;4.80;99.90;;;;;;5084668;28;20439;-51
2022/01/17 02:43:48;;;;;;;15.85;9.93;;;4.70;99.90;;;;;;5080937;28;20263;-51
2022/01/17 02:46:24;;;;;;;10.30;8.77;;;4.80;99.90;;;;;;5080734;28;20198;-51
2022/01/17 02:48:54;;;;;;;14.23;9.88;;;4.80;99.90;;;;;;5080441;28;20377;-50
2022/01/17 02:51:21;;;;;;;14.85;9.70;;;4.70;99.90;;;;;;5080988;28;20223;-48
2022/01/17 02:53:50;;;;;;;11.30;9.43;;;4.70;99.90;;;;;;5080810;28;20226;-52
2022/01/17 02:56:18;;;;;;;10.82;8.65;;;4.80;99.90;;;;;;5080225;28;20197;-50
2022/01/17 02:58:46;;;;;;;14.23;9.48;;;4.80;99.90;;;;;;5080549;28;20753;-50
2022/01/17 03:01:18;;;;;;;14.25;11.02;;;4.90;99.90;;;;;;5080264;28;20199;-50
2022/01/17 03:03:46;;;;;;;10.57;7.35;;;4.80;99.90;;;;;;5079843;28;20221;-51
2022/01/17 03:06:15;;;;;;;10.35;8.40;;;4.90;99.90;;;;;;5080404;28;20202;-50
2022/01/17 03:08:44;;;;;;;13.38;9.25;;;4.80;99.90;;;;;;5080542;28;20201;-49
2022/01/17 03:11:17;;;;;;;13.20;9.35;;;4.70;99.90;;;;;;5079838;28;20226;-51
2022/01/17 03:13:47;;;;;;;17.48;10.23;;;4.70;99.90;;;;;;5080534;28;20271;-50
2022/01/17 03:16:17;;;;;;;13.23;8.93;;;4.70;99.90;;;;;;5080088;28;20197;-52
2022/01/17 03:18:50;;;;;;;15.10;10.43;;;4.70;99.90;;;;;;5080349;28;20277;-49
2022/01/17 03:21:18;;;;;;;15.13;10.00;;;4.70;99.90;;;;;;5081944;28;20198;-49
2022/01/17 03:23:48;;;;;;;11.27;9.30;;;4.80;99.90;;;;;;5080384;28;20479;-50
2022/01/17 03:26:16;;;;;;;13.65;9.88;;;4.80;99.90;;;;;;5080370;28;20225;-48
2022/01/17 03:28:44;;;;;;;13.98;9.52;;;4.80;99.90;;;;;;5080193;28;20202;-50
2022/01/17 03:31:12;;;;;;;16.40;10.75;;;4.70;99.90;;;;;;5080353;28;20232;-53
2022/01/17 03:33:39;;;;;;;16.33;9.85;;;4.80;99.90;;;;;;5080807;28;20229;-48
2022/01/17 03:36:07;;;;;;;11.82;9.45;;;4.80;99.90;;;;;;5080385;28;20475;-50
2022/01/17 03:38:35;;;;;;;11.82;8.70;;;4.80;99.90;;;;;;5080704;28;20500;-54
2022/01/17 03:41:05;;;;;;;12.88;8.82;;;4.90;99.90;;;;;;5082278;28;20260;-50
2022/01/17 03:43:33;;;;;;;14.43;9.80;;;4.80;99.90;;;;;;5082233;28;20529;-54
2022/01/17 03:46:01;;;;;;;16.85;11.40;;;4.70;99.90;;;;;;5081178;28;20284;-54
2022/01/17 03:48:30;;;;;;;18.50;12.57;;;4.60;99.90;;;;;;5082740;28;20271;-54
2022/01/17 03:50:58;;;;;;;13.57;9.32;;;4.60;99.90;;;;;;5081726;28;20232;-53
2022/01/17 03:53:27;;;;;;;12.63;10.10;;;4.60;99.90;;;;;;5081860;28;20230;-51
2022/01/17 03:55:55;;;;;;;15.23;10.65;;;4.70;99.90;;;;;;5079863;28;20194;-49
2022/01/17 03:58:27;;;;;;;11.82;8.68;;;4.80;99.90;;;;;;5080867;28;20202;-51
2022/01/17 04:00:57;;;;;;;15.93;10.35;;;4.80;99.90;;;;;;5079813;28;20258;-51
2022/01/17 04:03:26;;;;;;;14.45;9.70;;;4.90;99.90;;;;;;5080904;28;20675;-49
2022/01/17 04:05:54;;;;;;;14.48;9.55;;;4.90;99.90;;;;;;5079765;28;20206;-52
2022/01/17 04:08:22;;;;;;;17.98;11.55;;;5.00;99.90;;;;;;5079771;28;20202;-52
2022/01/17 04:10:49;;;;;;;13.20;9.23;;;5.00;99.90;;;;;;5079510;28;20256;-52
2022/01/17 04:13:17;;;;;;;11.38;8.60;;;5.10;99.90;;;;;;5079565;28;20221;-51
2022/01/17 04:15:44;;;;;;;12.63;8.63;;;5.00;99.90;;;;;;5083879;28;20527;-52
2022/01/17 04:18:12;;;;;;;14.30;9.07;;;5.10;99.90;;;;;;5083426;28;20205;-49
2022/01/17 04:20:41;;;;;;;9.63;8.02;;;5.10;99.90;;;;;;5087897;28;20202;-54
2022/01/17 04:23:11;;;;;;;11.52;8.73;;;5.20;99.90;;;;;;5089195;28;20760;-50
2022/01/17 04:25:39;;;;;;;10.82;8.05;;;5.20;99.90;;;;;;5083770;28;20213;-50
2022/01/17 04:28:08;;;;;;;15.38;6.88;;;5.20;99.90;;;;;;5083716;28;20202;-49
2022/01/17 04:30:36;;;;;;;9.95;8.32;;;5.20;99.90;;;;;;5083767;28;20221;-52
2022/01/17 04:33:04;;;;;;;10.50;7.05;;;5.20;99.90;;;;;;5083617;28;20209;-50
2022/01/17 04:35:32;;;;;;;8.30;6.00;;;5.20;99.90;;;;;;5083147;28;20243;-51
2022/01/17 04:38:06;;;;;;;8.65;6.57;;;5.10;99.90;;;;;;5083228;28;20523;-49
2022/01/17 04:40:36;;;;;;;10.90;6.93;;;5.10;99.90;;;;;;5082781;28;20246;-52
2022/01/17 04:43:16;;;;;;;6.80;6.10;;;5.10;99.90;;;;;;5083284;28;20452;-51
2022/01/17 04:45:43;;;;;;;8.25;5.35;;;5.20;99.90;;;;;;5083054;28;20240;-50
2022/01/17 04:48:11;;;;;;;8.43;6.55;;;5.10;99.90;;;;;;5083064;28;20203;-51
2022/01/17 04:50:39;;;;;;;7.05;5.38;;;5.10;99.90;;;;;;5082474;28;20218;-49
2022/01/17 04:53:07;;;;;;;12.30;7.75;;;5.10;99.90;;;;;;5082918;28;20213;-50
2022/01/17 04:55:36;;;;;;;12.30;6.38;;;5.20;99.90;;;;;;5082948;28;20574;-49
2022/01/17 04:58:04;;;;;;;11.32;6.32;;;5.20;99.90;;;;;;5081172;28;20434;-49
2022/01/17 05:00:31;;;;;;;10.70;7.80;;;5.20;99.90;;;;;;5066799;28;20219;-52
2022/01/17 05:02:59;;;;;;;6.80;5.32;;;5.20;99.90;;;;;;5065282;28;20434;-49
2022/01/17 05:05:26;;;;;;;10.07;6.95;;;5.20;99.90;;;;;;5047295;28;20210;-51
2022/01/17 05:07:53;;;;;;;7.88;5.80;;;5.20;99.90;;;;;;5062326;28;20212;-51
2022/01/17 05:10:22;;;;;;;7.75;5.60;;;5.20;99.90;;;;;;5050416;28;20450;-49
2022/01/17 05:12:51;;;;;;;7.63;5.30;;;5.20;99.90;;;;;;5044355;28;20206;-50
2022/01/17 05:20:26;;;;;;;7.35;5.20;;;5.30;99.90;;;;;;5087160;28;20214;-50
2022/01/17 05:22:54;;;;;;;7.65;6.20;;;5.30;99.90;;;;;;5082802;28;20505;-49
2022/01/17 05:25:22;;;;;;;7.53;6.15;;;5.40;99.90;;;;;;5081831;28;20206;-51
2022/01/17 05:27:50;;;;;;;10.32;6.65;;;5.30;99.90;;;;;;5080220;28;20490;-53
2022/01/17 05:30:19;;;;;;;6.90;5.78;;;5.40;99.90;;;;;;5062027;28;20276;-52
2022/01/17 05:32:47;;;;;;;8.27;6.00;;;5.40;99.90;;;;;;5063256;28;20198;-52
2022/01/17 05:35:15;;;;;;;5.85;5.28;;;5.30;99.90;;;;;;5063516;28;20203;-48
2022/01/17 05:37:43;;;;;;;5.95;4.88;;;5.20;99.90;;;;;;5074148;28;20195;-50
2022/01/17 05:40:13;;;;;;;7.15;5.32;;;5.20;99.90;;;;;;5081832;28;20245;-48
2022/01/17 05:42:40;;;;;;;8.18;6.97;;;5.20;99.90;;;;;;5082325;28;20203;-48
2022/01/17 05:45:09;;;;;;;8.43;5.80;;;5.10;99.90;;;;;;5082187;28;20205;-51
2022/01/17 05:47:37;;;;;;;6.13;4.57;;;5.00;99.90;;;;;;5049322;28;20262;-49
2022/01/17 05:50:05;;;;;;;8.52;7.38;;;4.90;99.90;;;;;;5050212;28;20300;-52
2022/01/17 05:52:32;;;;;;;11.18;6.10;;;4.90;99.90;;;;;;5049004;28;20200;-50
2022/01/17 05:55:01;;;;;;;12.40;7.60;;;4.80;99.90;;;;;;5066439;28;20313;-49
2022/01/17 05:57:28;;;;;;;7.60;6.28;;;4.80;99.90;;;;;;5066725;28;20204;-53
2022/01/17 05:59:58;;;;;;;8.13;6.88;;;4.70;99.90;;;;;;5061608;28;20228;-48
2022/01/17 06:02:26;;;;;;;15.30;6.93;;;4.70;99.90;;;;;;5064592;28;20246;-52
2022/01/17 06:04:54;;;;;;;10.35;7.70;;;4.70;99.90;;;;;;5067321;28;20457;-52
2022/01/17 06:07:21;;;;;;;12.00;8.20;;;4.70;99.90;;;;;;5061422;28;20217;-53
2022/01/17 06:09:49;;;;;;;11.30;6.55;;;4.70;99.90;;;;;;5061018;28;20237;-54
2022/01/17 06:12:16;;;;;;;7.57;6.75;;;4.70;99.90;;;;;;5060961;28;20219;-52
2022/01/17 06:14:44;;;;;;;6.50;5.80;;;4.70;99.90;;;;;;5060868;28;20249;-52
2022/01/17 06:17:12;;;;;;;10.00;6.80;;;4.70;99.90;;;;;;5061163;28;20402;-52
2022/01/17 06:19:39;;;;;;;7.38;6.03;;;4.70;99.90;;;;;;5061463;28;20415;-50
2022/01/17 06:22:10;;;;;;;9.82;8.00;;;4.70;99.90;;;;;;5060985;28;20394;-54
2022/01/17 06:24:38;;;;;;;18.75;9.30;;;4.70;99.90;;;;;;5060833;28;20267;-48
2022/01/17 06:27:06;;;;;;;8.95;6.32;;;4.70;99.90;;;;;;5060692;28;20256;-52
2022/01/17 06:29:33;;;;;;;8.45;6.75;;;4.70;99.90;;;;;;5061327;28;20522;-50
2022/01/17 06:32:01;;;;;;;7.53;5.90;;;4.80;99.90;;;;;;5060750;28;20553;-49
2022/01/17 06:34:48;;;;;;;12.40;6.63;;;4.90;99.90;;;;;;5060851;28;20221;-50
2022/01/17 06:37:16;;;;;;;6.57;5.57;;;4.90;99.90;;;;;;5060237;28;20211;-48
2022/01/17 06:39:44;;;;;;;12.98;6.47;;;4.90;99.90;;;;;;5060779;28;20207;-49
2022/01/17 06:42:11;;;;;;;11.30;6.80;;;4.90;99.90;;;;;;5060621;28;20206;-52
2022/01/17 06:44:38;;;;;;;9.18;6.47;;;5.00;99.90;;;;;;5060600;28;20223;-52
2022/01/17 06:47:05;;;;;;;20.85;8.23;;;5.00;99.90;;;;;;5060319;28;20267;-50
2022/01/17 06:49:33;;;;;;;10.70;6.10;;;5.10;99.90;;;;;;5060589;28;20240;-51
2022/01/17 06:52:00;;;;;;;7.35;5.18;;;5.00;99.90;;;;;;5059994;28;20588;-51
2022/01/17 06:54:28;;;;;;;7.35;6.57;;;5.10;99.90;;;;;;5060657;28;20216;-51
2022/01/17 06:56:55;;;;;;;10.27;6.03;;;5.10;99.90;;;;;;5060898;28;20203;-53
2022/01/17 06:59:23;;;;;;;8.23;5.22;;;5.20;99.90;;;;;;5061756;28;20507;-52
2022/01/17 07:01:50;;;;;;;7.95;5.45;;;5.10;99.90;;;;;;5065796;28;20204;-53
2022/01/17 07:04:19;;;;;;;6.13;5.03;;;5.20;99.90;;;;;;5062974;28;20229;-51
2022/01/17 07:06:46;;;;;;;6.18;4.70;;;5.30;99.90;;;;;;5058207;28;20238;-48
2022/01/17 07:09:16;;;;;;;7.63;5.35;;;5.30;99.90;;;;;;5060717;28;20203;-53
2022/01/17 07:11:44;;;;;;;6.65;5.95;;;5.30;99.90;;;;;;5061447;28;20768;-47
2022/01/17 07:14:12;;;;;;;7.70;4.53;;;5.30;99.90;;;;;;5047986;28;20440;-50
2022/01/17 07:16:41;;;;;;;7.82;4.50;;;5.40;99.90;;;;;;5051953;28;20246;-49
2022/01/17 07:19:09;;;;;;;5.53;4.47;;;5.50;99.90;;;;;;5049143;28;21279;-54
2022/01/17 07:21:37;;;;;;;5.45;3.75;;;5.40;99.90;;;;;;5047908;28;20204;-52
2022/01/17 07:24:06;;;;;;;4.60;4.20;;;5.50;99.90;;;;;;5049779;28;20218;-52
2022/01/17 07:26:33;;;;;;;7.10;5.38;;;5.50;99.90;;;;;;5046702;28;20445;-52
2022/01/17 07:29:01;;;;;;;8.95;5.63;;;5.60;99.90;;;;;;5060199;28;20199;-52
2022/01/17 07:31:29;;;;;;;4.68;4.28;;;5.60;99.90;;;;;;5059696;28;20374;-48
2022/01/17 07:33:56;;;;;;;3.80;3.50;;;5.50;99.90;;;;;;5059495;28;20215;-50
2022/01/17 07:36:28;;;;;;;7.75;4.20;;;5.50;99.90;;;;;;5051936;28;20203;-51
2022/01/17 07:38:56;;;;;;;11.32;4.55;;;5.50;99.90;;;;;;5042302;28;20198;-53
2022/01/17 07:41:24;;;;;;;3.70;2.97;;;5.50;99.90;;;;;;5043996;28;20207;-53
2022/01/17 07:44:01;;;;;;;4.55;3.05;;;5.50;99.90;;;;;;5060793;28;20226;-54
2022/01/17 07:49:10;;;;;;;3.47;2.70;;;5.50;99.90;;;;;;5063383;28;20213;-53
2022/01/17 07:51:41;;;;;;;3.22;2.92;;;5.40;99.90;;;;;;5072705;28;20294;-49
2022/01/17 07:54:11;;;;;;;3.13;2.50;;;5.40;99.90;;;;;;5079250;28;20537;-49
2022/01/17 07:56:40;;;;;;;4.07;3.20;;;5.30;99.90;;;;;;5078882;28;20513;-53
2022/01/17 07:59:09;;;;;;;5.13;2.63;;;5.30;99.90;;;;;;5081420;28;20198;-53
2022/01/17 08:01:37;;;;;;;2.88;2.53;;;5.30;99.90;;;;;;5082613;28;20220;-50
2022/01/17 08:04:06;;;;;;;4.18;2.42;;;5.20;99.90;;;;;;5078392;28;20253;-49
2022/01/17 08:06:36;;;;;;;2.40;2.10;;;5.20;99.90;;;;;;5067592;28;20253;-48
2022/01/17 08:09:32;;;;;;;4.05;2.33;;;5.20;99.90;;;;;;5047527;28;20202;-52
2022/01/17 08:12:07;;;;;;;5.00;2.25;;;5.10;99.90;;;;;;5063057;28;20225;-50
2022/01/17 08:14:35;;;;;;;3.60;2.40;;;5.10;99.90;;;;;;5079794;28;20312;-50
2022/01/17 08:17:02;;;;;;;3.35;2.33;;;5.10;99.90;;;;;;5079215;28;20225;-52
2022/01/17 08:19:30;;;;;;;4.20;3.40;;;5.00;99.90;;;;;;5077193;28;20249;-48
2022/01/17 08:22:00;;;;;;;2.78;2.15;;;5.00;99.90;;;;;;5057472;28;20215;-51
2022/01/17 08:24:28;;;;;;;2.42;1.88;;;5.00;99.90;;;;;;5063630;28;20368;-52
2022/01/17 08:26:56;;;;;;;3.95;2.65;;;4.90;99.90;;;;;;5059362;28;20511;-51
2022/01/17 08:29:25;;;;;;;2.83;2.45;;;4.90;99.90;;;;;;5059709;28;20384;-47
2022/01/17 08:31:54;;;;;;;3.80;2.10;;;4.90;99.90;;;;;;5060216;28;20254;-49
2022/01/17 08:34:22;;;;;;;2.38;2.17;;;4.90;99.90;;;;;;5059564;28;20224;-53
2022/01/17 08:36:50;;;;;;;2.85;2.05;;;4.90;99.90;;;;;;5058544;28;20203;-48
2022/01/17 08:39:18;;;;;;;4.82;2.90;;;5.00;99.90;;;;;;5059405;28;20409;-52
2022/01/17 08:41:47;;;;;;;5.32;2.10;;;4.90;99.90;;;;;;5059408;28;20240;-51
2022/01/17 08:44:19;;;;;;;2.30;2.10;;;4.90;99.90;;;;;;5059861;28;20226;-49
2022/01/17 08:46:46;;;;;;;2.88;1.67;;;4.90;99.90;;;;;;5059107;28;20210;-50
2022/01/17 08:49:16;;;;;;;3.58;1.92;;;4.90;99.90;;;;;;5059294;28;20385;-52
2022/01/17 08:51:46;;;;;;;2.58;1.70;;;4.90;99.90;;;;;;5058747;28;20237;-51
2022/01/17 08:54:14;;;;;;;1.65;1.30;;;5.10;99.90;;;;;;5059616;28;20257;-50
2022/01/17 08:56:41;;;;;;;6.28;2.55;;;5.20;99.90;;;;;;5059315;28;20250;-52
2022/01/17 08:59:09;;;;;;;2.83;1.70;;;5.20;99.90;;;;;;5058955;28;20199;-49
2022/01/17 09:01:36;;;;;;;1.38;1.23;;;5.20;99.90;;;;;;5061681;28;20202;-50
2022/01/17 09:04:04;;;;;;;1.83;1.50;;;5.20;99.90;;;;;;5062246;28;20211;-54
2022/01/17 09:06:31;;;;;;;1.70;1.60;;;5.30;99.90;;;;;;5063196;28;20245;-49
2022/01/17 09:08:59;;;;;;;2.85;1.30;;;5.40;99.90;;;;;;5062558;28;20245;-50
2022/01/17 09:11:27;;;;;;;1.60;1.50;;;5.40;99.90;;;;;;5063323;28;20338;-50
2022/01/17 09:13:55;;;;;;;1.23;1.13;;;5.50;99.90;;;;;;5063855;28;20293;-50
2022/01/17 09:16:22;;;;;;;1.33;1.23;;;5.50;99.90;;;;;;5062766;28;20214;-48
2022/01/17 09:18:50;;;;;;;1.42;1.25;;;5.50;99.90;;;;;;5062386;28;20290;-53
2022/01/17 09:21:17;;;;;;;2.17;1.90;;;5.40;99.90;;;;;;5064541;28;20245;-51
2022/01/17 09:23:45;;;;;;;1.90;1.50;;;5.50;99.90;;;;;;5069805;28;20226;-54
2022/01/17 09:26:13;;;;;;;3.25;1.20;;;5.50;99.90;;;;;;5069694;28;20501;-50
2022/01/17 09:28:41;;;;;;;1.75;1.00;;;5.50;99.90;;;;;;5068821;28;20210;-52
2022/01/17 09:31:08;;;;;;;2.05;1.05;;;5.60;99.90;;;;;;5081823;28;20263;-52
2022/01/17 09:33:36;;;;;;;1.60;1.20;;;5.60;99.90;;;;;;5082416;28;20260;-52
2022/01/17 09:36:04;;;;;;;5.47;1.48;;;5.60;99.90;;;;;;5080937;28;20449;-50
2022/01/17 09:38:32;;;;;;;1.15;1.05;;;5.60;99.90;;;;;;5081971;28;20220;-49
2022/01/17 09:41:01;;;;;;;1.67;1.25;;;5.60;99.90;;;;;;5082118;28;20202;-53
2022/01/17 09:43:45;;;;;;;1.80;1.50;;;5.70;99.90;;;;;;5081433;28;20226;-50
2022/01/17 09:46:14;;;;;;;0.85;0.85;;;5.70;99.90;;;;;;5082285;28;20290;-51
2022/01/17 09:48:47;;;;;;;1.20;0.90;;;5.70;99.90;;;;;;5081807;28;20194;-53
2022/01/17 09:51:38;;;;;;;1.88;1.15;;;5.80;99.90;;;;;;5082037;28;20215;-48
2022/01/17 09:54:07;;;;;;;0.90;0.90;;;5.80;99.90;;;;;;5081433;28;20218;-49
2022/01/17 09:56:38;;;;;;;1.08;0.98;;;5.80;99.90;;;;;;5080611;28;20222;-56
2022/01/17 09:59:05;;;;;;;1.30;1.20;;;5.90;99.90;;;;;;5052564;28;20202;-55
2022/01/17 10:01:32;;;;;;;1.20;1.10;;;5.90;99.90;;;;;;5052495;28;20246;-48
2022/01/17 10:04:06;;;;;;;2.13;0.90;;;5.90;99.90;;;;;;5053480;28;20228;-52
2022/01/17 10:06:35;;;;;;;2.00;1.15;;;6.00;99.90;;;;;;5049614;28;20208;-53
2022/01/17 10:09:12;;;;;;;3.85;1.20;;;5.90;99.90;;;;;;5055732;28;20209;-51
2022/01/17 10:12:04;;;;;;;1.20;1.10;;;6.00;99.90;;;;;;5072688;28;20264;-47
2022/01/17 10:14:39;;;;;;;3.70;1.50;;;6.10;99.90;;;;;;5081709;28;20402;-51
2022/01/17 10:17:09;;;;;;;1.13;1.10;;;6.10;99.90;;;;;;5080689;28;20629;-52
2022/01/17 10:19:37;;;;;;;0.73;0.73;;;6.20;99.90;;;;;;5081257;28;20244;-51
2022/01/17 10:22:17;;;;;;;1.10;0.80;;;6.20;99.90;;;;;;5080876;28;20217;-51
2022/01/17 10:25:00;;;;;;;2.08;1.60;;;6.30;99.90;;;;;;5081543;28;20221;-50
2022/01/17 10:35:35;;;;;;;2.78;1.20;;;6.30;99.90;;;;;;5081160;28;20498;-54
2022/01/17 10:38:11;;;;;;;1.25;0.93;;;6.20;99.90;;;;;;5080803;28;20197;-52
2022/01/17 10:40:44;;;;;;;1.52;1.15;;;6.20;99.90;;;;;;5081395;28;20206;-53
2022/01/17 10:43:26;;;;;;;1.88;1.00;;;6.10;99.90;;;;;;5085205;28;20229;-53
2022/01/17 10:45:56;;;;;;;0.90;0.90;;;6.10;99.90;;;;;;5081903;28;20213;-53
2022/01/17 10:48:40;;;;;;;2.50;1.25;;;6.20;99.90;;;;;;5080997;28;20247;-51
2022/01/17 10:51:09;;;;;;;2.65;1.35;;;6.10;99.90;;;;;;5080142;28;20247;-51
2022/01/17 10:53:39;;;;;;;1.40;1.30;;;6.10;99.90;;;;;;5080584;28;20533;-50
2022/01/17 10:56:13;;;;;;;1.83;1.45;;;6.10;99.90;;;;;;5080301;28;20212;-51
2022/01/17 10:58:41;;;;;;;2.45;1.30;;;6.00;99.90;;;;;;5080679;28;20504;-50
2022/01/17 11:01:15;;;;;;;1.63;1.25;;;5.90;99.90;;;;;;5065990;28;20209;-55
2022/01/17 11:03:46;;;;;;;1.70;1.60;;;5.90;99.90;;;;;;5060867;28;20220;-53
2022/01/17 11:06:19;;;;;;;7.05;1.80;;;5.80;99.90;;;;;;5060490;28;20198;-50
2022/01/17 11:08:47;;;;;;;1.55;1.45;;;5.70;99.90;;;;;;5059332;28;20440;-50
2022/01/17 11:11:14;;;;;;;1.95;1.80;;;5.70;99.90;;;;;;5066950;28;20509;-50
2022/01/17 11:13:48;;;;;;;1.17;0.93;;;5.80;99.90;;;;;;5077463;28;20231;-49
2022/01/17 11:16:20;;;;;;;2.15;1.20;;;5.80;99.90;;;;;;5079942;28;20235;-53
2022/01/17 11:18:59;;;;;;;1.38;1.25;;;5.70;99.90;;;;;;5079984;28;20459;-56
2022/01/17 11:21:31;;;;;;;3.70;1.33;;;5.60;99.90;;;;;;5080368;28;20240;-57
2022/01/17 11:24:00;;;;;;;0.40;0.40;;;4.00;99.90;;;;;;5079028;28;20216;-58
2022/01/17 11:26:27;;;;;;;0.60;0.47;;;2.70;99.90;;;;;;5079872;28;20211;-55
2022/01/17 11:28:55;;;;;;;0.88;0.70;;;2.40;99.90;;;;;;5080136;28;20202;-57
2022/01/17 11:31:24;;;;;;;2.28;0.90;;;2.40;99.90;;;;;;5080078;28;20428;-61
2022/01/17 11:33:52;;;;;;;0.82;0.57;;;2.50;99.90;;;;;;5080113;28;20264;-59
2022/01/17 11:36:20;;;;;;;0.50;0.50;;;2.60;99.90;;;;;;5079573;28;20195;-59
2022/01/17 11:38:52;;;;;;;0.82;0.82;;;2.70;99.90;;;;;;5080314;28;20198;-58
2022/01/17 11:41:26;;;;;;;0.70;0.60;;;2.80;99.90;;;;;;5079630;28;20207;-56
2022/01/17 11:44:00;;;;;;;1.80;0.70;;;2.70;99.90;;;;;;5080067;28;20223;-57
2022/01/17 11:46:30;;;;;;;1.27;0.98;;;2.70;99.90;;;;;;5079845;28;20210;-54
2022/01/17 11:49:06;;;;;;;0.50;0.50;;;2.80;99.90;;;;;;5080107;28;20204;-56
2022/01/17 11:51:46;;;;;;;0.93;0.85;;;2.70;99.90;;;;;;5079912;28;20477;-55
2022/01/17 11:54:16;;;;;;;1.42;1.05;;;2.70;99.90;;;;;;5079996;28;20214;-55
2022/01/17 11:56:46;;;;;;;0.80;0.80;;;2.70;99.90;;;;;;5079886;28;20261;-54
2022/01/17 11:59:29;;;;;;;0.63;0.63;;;2.60;99.90;;;;;;5079846;28;20221;-56
2022/01/17 12:02:32;;;;;;;2.88;0.95;;;2.80;99.90;;;;;;5079666;28;20525;-56
2022/01/17 12:05:08;;;;;;;0.75;0.70;;;3.00;99.90;;;;;;5079833;28;20302;-54
2022/01/17 12:07:51;;;;;;;1.25;1.15;;;3.10;99.90;;;;;;5079463;28;20198;-55
2022/01/17 12:10:37;;;;;;;1.80;1.70;;;3.20;99.90;;;;;;5079654;28;20236;-54
2022/01/17 12:13:19;;;;;;;1.08;0.93;;;3.40;99.90;;;;;;5078871;28;20265;-59
2022/01/17 12:15:59;;;;;;;2.17;1.92;;;3.50;99.90;;;;;;5065420;28;20209;-55
2022/01/17 12:18:35;;;;;;;2.97;1.52;;;3.50;99.90;;;;;;5045437;28;20196;-56
2022/01/17 12:21:28;;;;;;;1.52;1.42;;;3.60;99.90;;;;;;5045699;28;20196;-57
2022/01/17 12:24:19;;;;;;;2.90;1.50;;;3.60;99.90;;;;;;5048683;28;20222;-54
2022/01/17 12:26:58;;;;;;;1.65;1.50;;;3.70;99.90;;;;;;5046165;28;20202;-52
2022/01/17 12:29:55;;;;;;;1.50;1.20;;;3.80;99.90;;;;;;5045099;28;20263;-54
2022/01/17 12:32:26;;;;;;;1.75;1.48;;;3.80;99.90;;;;;;5045190;28;20264;-54
2022/01/17 12:34:58;;;;;;;3.65;1.85;;;3.80;99.90;;;;;;5059817;28;20420;-51
2022/01/17 12:37:50;;;;;;;6.68;3.03;;;3.80;99.90;;;;;;5059164;28;20196;-51
2022/01/17 12:40:30;;;;;;;2.00;1.75;;;3.80;99.90;;;;;;5067014;28;20279;-57
2022/01/17 12:43:04;;;;;;;4.60;1.88;;;3.80;99.90;;;;;;5077943;28;20381;-54
2022/01/17 12:45:35;;;;;;;3.50;1.83;;;3.80;99.90;;;;;;5083603;28;20212;-55
2022/01/17 12:48:12;;;;;;;1.52;1.42;;;3.80;99.90;;;;;;5082174;28;20209;-51
2022/01/17 12:50:42;;;;;;;2.58;1.60;;;3.70;99.90;;;;;;5083347;28;20530;-52
2022/01/17 12:53:11;;;;;;;5.88;2.78;;;3.70;99.90;;;;;;5082718;28;20269;-52
2022/01/17 12:55:54;;;;;;;2.20;2.08;;;3.70;99.90;;;;;;5083303;28;20197;-52
2022/01/17 12:58:24;;;;;;;2.03;1.00;;;3.70;99.90;;;;;;5082498;28;20197;-52
2022/01/17 13:00:53;;;;;;;2.25;1.05;;;3.60;99.90;;;;;;5082863;28;20195;-53
2022/01/17 13:03:24;;;;;;;1.67;1.40;;;3.60;99.90;;;;;;5082955;28;20526;-56
2022/01/17 13:05:53;;;;;;;4.20;1.67;;;3.60;99.90;;;;;;5082418;28;20201;-51
2022/01/17 13:08:22;;;;;;;3.08;1.40;;;3.50;99.90;;;;;;5082878;28;20552;-55
2022/01/17 13:10:55;;;;;;;1.40;0.95;;;3.40;99.90;;;;;;5082013;28;20319;-53
2022/01/17 13:13:23;;;;;;;4.90;1.75;;;3.30;99.90;;;;;;5071675;28;20224;-54
2022/01/17 13:16:03;;;;;;;1.30;0.98;;;3.20;99.90;;;;;;5058448;28;20274;-53
2022/01/17 13:18:35;;;;;;;4.55;3.55;;;3.20;99.90;;;;;;5054451;28;20507;-54
2022/01/17 13:21:04;;;;;;;3.17;1.10;;;3.20;99.90;;;;;;5062272;28;20203;-52
2022/01/17 13:23:45;;;;;;;2.95;1.23;;;3.00;99.90;;;;;;5062423;28;20232;-52
2022/01/17 13:26:14;;;;;;;2.33;1.33;;;3.00;99.90;;;;;;5064479;28;20259;-53
2022/01/17 13:28:52;;;;;;;5.20;1.95;;;2.90;99.90;;;;;;5064130;28;20293;-49
2022/01/17 13:31:24;;;;;;;3.10;1.30;;;2.80;99.90;;;;;;5062575;28;20200;-52
2022/01/17 13:33:53;;;;;;;3.55;1.63;;;2.80;99.90;;;;;;5062648;28;20274;-51
2022/01/17 13:36:26;;;;;;;4.03;1.75;;;2.80;99.90;;;;;;5062901;28;20197;-53
2022/01/17 13:39:05;;;;;;;1.55;1.30;;;2.80;99.90;;;;;;5064632;28;20187;-53
2022/01/17 13:41:34;;;;;;;2.67;1.77;;;2.90;99.90;;;;;;5065438;28;20212;-52